createdAt,value
2022-12-18T00:03:10.430Z,92.30
2022-12-18T00:13:13.954Z,80.93
2022-12-18T00:18:20.406Z,72.78
2022-12-18T00:23:22.357Z,79.20
2022-12-18T00:28:24.022Z,80.47
2022-12-18T00:33:27.027Z,67.43
2022-12-18T00:38:28.674Z,83.10
2022-12-18T00:43:30.358Z,68.10
2022-12-18T00:48:33.804Z,58.40
2022-12-18T00:58:37.477Z,62.35
2022-12-18T01:03:41.137Z,64.78
2022-12-18T01:08:43.744Z,66.60
2022-12-18T01:13:45.710Z,65.20
2022-12-18T01:18:51.642Z,60.33
2022-12-18T01:23:56.015Z,75.45
2022-12-18T01:28:58.016Z,68.35
2022-12-18T01:34:02.201Z,61.25
2022-12-18T01:39:06.721Z,75.55
2022-12-18T01:44:42.010Z,61.55
2022-12-18T01:49:45.092Z,62.47
2022-12-18T01:54:48.266Z,64.95
2022-12-18T01:59:53.767Z,69.15
2022-12-18T02:04:56.863Z,58.17
2022-12-18T02:10:04.118Z,83.20
2022-12-18T02:15:13.448Z,73.12
2022-12-18T02:20:21.133Z,80.55
2022-12-18T02:25:39.666Z,62.60
2022-12-18T02:30:44.981Z,69.25
2022-12-18T02:35:48.186Z,69.97
2022-12-18T02:40:51.921Z,56.25
2022-12-18T02:45:57.494Z,55.80
2022-12-18T02:51:04.834Z,60.88
2022-12-18T02:56:10.861Z,54.50
2022-12-18T03:01:20.681Z,62.22
2022-12-18T03:06:27.443Z,60.35
2022-12-18T03:11:34.510Z,61.13
2022-12-18T03:16:37.596Z,56.65
2022-12-18T03:21:44.184Z,51.25
2022-12-18T03:26:49.997Z,71.32
2022-12-18T03:31:57.479Z,59.17
2022-12-18T03:36:59.276Z,68.70
2022-12-18T03:42:08.347Z,63.90
2022-12-18T03:47:17.419Z,61.90
2022-12-18T03:52:26.829Z,69.12
2022-12-18T03:57:31.388Z,56.35
2022-12-18T04:02:35.928Z,55.65
2022-12-18T04:07:39.149Z,57.08
2022-12-18T04:12:40.798Z,64.93
2022-12-18T04:17:48.717Z,64.43
2022-12-18T04:22:50.442Z,72.45
2022-12-18T04:27:52.087Z,62.50
2022-12-18T04:32:55.038Z,65.87
2022-12-18T04:37:56.805Z,53.87
2022-12-18T04:42:58.467Z,58.08
2022-12-18T04:48:02.833Z,62.33
2022-12-18T04:53:04.517Z,63.72
2022-12-18T04:58:06.150Z,76.30
2022-12-18T05:03:09.236Z,66.55
2022-12-18T05:08:10.899Z,76.80
2022-12-18T05:13:12.603Z,71.60
2022-12-18T05:18:15.622Z,82.30
2022-12-18T05:23:17.313Z,84.70
2022-12-18T05:28:19.233Z,66.20
2022-12-18T05:33:23.561Z,66.45
2022-12-18T05:38:26.601Z,68.35
2022-12-18T05:43:28.530Z,68.15
2022-12-18T05:48:31.554Z,67.25
2022-12-18T05:53:33.438Z,61.33
2022-12-18T05:58:35.201Z,62.50
2022-12-18T06:03:38.340Z,63.30
2022-12-18T06:08:45.871Z,80.78
2022-12-18T06:13:53.487Z,63.78
2022-12-18T06:18:59.844Z,73.47
2022-12-18T06:24:01.804Z,76.80
2022-12-18T06:29:03.531Z,81.05
2022-12-18T06:34:06.526Z,71.00
2022-12-18T06:39:08.145Z,71.68
2022-12-18T06:44:10.953Z,69.50
2022-12-18T06:49:14.292Z,64.80
2022-12-18T06:54:16.738Z,66.40
2022-12-18T06:59:18.577Z,70.43
2022-12-18T07:04:21.596Z,69.47
2022-12-18T07:09:23.248Z,74.40
2022-12-18T07:14:24.932Z,82.25
2022-12-18T07:19:27.903Z,62.13
2022-12-18T07:24:30.837Z,67.20
2022-12-18T07:29:32.514Z,77.87
2022-12-18T07:34:35.555Z,63.47
2022-12-18T07:39:37.337Z,57.03
2022-12-18T07:44:38.968Z,66.43
2022-12-18T07:49:41.933Z,72.80
2022-12-18T07:54:43.813Z,58.28
2022-12-18T07:59:45.491Z,61.60
2022-12-18T08:04:48.479Z,70.05
2022-12-18T08:09:50.156Z,55.25
2022-12-18T08:14:52.134Z,54.65
2022-12-18T08:19:55.141Z,62.78
2022-12-18T08:24:56.756Z,64.57
2022-12-18T08:29:58.821Z,61.15
2022-12-18T08:35:01.832Z,69.05
2022-12-18T08:40:04.048Z,67.30
2022-12-18T08:45:06.545Z,64.45
2022-12-18T08:50:10.795Z,56.37
2022-12-18T08:55:12.405Z,56.92
2022-12-18T09:00:15.099Z,63.70
2022-12-18T09:05:18.346Z,71.55
2022-12-18T09:10:20.013Z,66.57
2022-12-18T09:15:22.520Z,61.83
2022-12-18T09:20:25.530Z,66.82
2022-12-18T09:25:27.278Z,72.10
2022-12-18T09:30:29.033Z,66.72
2022-12-18T09:35:32.073Z,78.97
2022-12-18T09:40:37.030Z,64.80
2022-12-18T09:45:43.533Z,75.37
2022-12-18T09:50:48.941Z,74.40
2022-12-18T09:55:52.729Z,76.82
2022-12-18T10:00:54.453Z,81.47
2022-12-18T10:06:08.201Z,73.45
2022-12-18T10:11:39.056Z,81.47
2022-12-18T10:16:51.610Z,74.22
2022-12-18T10:22:01.919Z,69.60
2022-12-18T10:27:14.623Z,78.20
2022-12-18T10:32:17.876Z,67.97
2022-12-18T10:37:23.577Z,71.85
2022-12-18T10:42:25.232Z,82.35
2022-12-18T10:47:26.924Z,82.95
2022-12-18T10:52:29.912Z,76.05
2022-12-18T10:57:35.182Z,83.50
2022-12-18T11:02:38.939Z,79.40
2022-12-18T11:12:51.435Z,52.65
2022-12-18T11:17:53.847Z,85.05
2022-12-18T11:22:59.128Z,85.68
2022-12-18T11:28:03.565Z,84.87
2022-12-18T11:33:07.849Z,75.53
2022-12-18T11:38:18.703Z,75.90
2022-12-18T11:43:27.838Z,83.75
2022-12-18T11:48:33.867Z,78.80
2022-12-18T11:53:36.936Z,75.93
2022-12-18T11:58:47.977Z,68.03
2022-12-18T12:04:31.015Z,86.15
2022-12-18T12:09:41.037Z,76.22
2022-12-18T12:14:53.170Z,77.97
2022-12-18T12:20:02.767Z,79.90
2022-12-18T12:25:23.447Z,69.15
2022-12-18T12:30:35.826Z,80.80
2022-12-18T12:35:47.638Z,84.35
2022-12-18T12:41:02.169Z,82.57
2022-12-18T12:46:07.525Z,95.60
2022-12-18T12:51:14.787Z,76.87
2022-12-18T12:56:20.900Z,74.43
2022-12-18T13:01:29.950Z,77.50
2022-12-18T13:06:44.752Z,78.70
2022-12-18T13:11:48.692Z,86.50
2022-12-18T13:16:50.582Z,80.60
2022-12-18T13:21:56.677Z,78.10
2022-12-18T13:26:59.718Z,82.32
2022-12-18T13:32:02.074Z,81.45
2022-12-18T13:37:43.251Z,85.90
2022-12-18T13:42:46.464Z,76.53
2022-12-18T13:47:48.673Z,83.57
2022-12-18T13:52:52.063Z,86.07
2022-12-18T13:58:05.748Z,61.67
2022-12-18T14:03:22.083Z,81.45
2022-12-18T14:08:28.148Z,98.35
2022-12-18T14:13:33.650Z,75.35
2022-12-18T14:18:43.681Z,83.35
2022-12-18T14:23:46.016Z,75.93
2022-12-18T14:28:49.186Z,82.20
2022-12-18T14:33:50.989Z,68.03
2022-12-18T14:38:54.392Z,70.72
2022-12-18T14:44:06.844Z,71.47
2022-12-18T14:49:21.995Z,87.35
2022-12-18T14:54:25.272Z,81.75
2022-12-18T14:59:29.542Z,70.73
2022-12-18T15:04:34.150Z,75.57
2022-12-18T15:09:35.983Z,81.87
2022-12-18T15:14:42.455Z,81.85
2022-12-18T15:19:45.894Z,90.57
2022-12-18T15:24:47.896Z,59.22
2022-12-18T15:30:03.974Z,82.82
2022-12-18T15:35:14.247Z,80.12
2022-12-18T15:40:17.450Z,68.85
2022-12-18T15:45:20.538Z,89.07
2022-12-18T15:50:24.371Z,84.50
2022-12-18T15:55:26.052Z,75.47
2022-12-18T16:00:29.288Z,80.07
2022-12-18T16:05:31.499Z,75.80
2022-12-18T16:10:33.322Z,83.37
2022-12-18T16:15:36.343Z,81.93
2022-12-18T16:20:39.426Z,78.80
2022-12-18T16:25:41.117Z,82.50
2022-12-18T16:30:44.138Z,96.63
2022-12-18T16:35:52.697Z,84.20
2022-12-18T16:40:54.326Z,87.85
2022-12-18T16:45:59.887Z,86.50
2022-12-18T16:51:03.460Z,87.12
2022-12-18T16:56:05.519Z,83.45
2022-12-18T17:01:10.519Z,80.43
2022-12-18T17:06:12.189Z,97.82
2022-12-18T17:11:13.881Z,77.03
2022-12-18T17:16:17.198Z,85.93
2022-12-18T17:21:19.040Z,103.12
2022-12-18T17:26:20.759Z,92.37
2022-12-18T17:31:26.246Z,100.20
2022-12-18T17:36:27.942Z,87.35
2022-12-18T17:41:30.740Z,81.45
2022-12-18T17:46:34.260Z,97.43
2022-12-18T17:51:35.955Z,81.57
2022-12-18T17:56:38.301Z,87.00
2022-12-18T18:01:45.022Z,91.20
2022-12-18T18:06:49.635Z,83.68
2022-12-18T18:16:55.789Z,76.90
2022-12-18T18:21:58.995Z,79.82
2022-12-18T18:27:01.059Z,96.03
2022-12-18T18:32:04.759Z,87.10
2022-12-18T18:37:06.515Z,81.05
2022-12-18T18:42:08.374Z,81.75
2022-12-18T18:47:11.345Z,95.57
2022-12-18T18:52:12.957Z,91.78
2022-12-18T18:57:25.176Z,80.82
2022-12-18T19:02:33.697Z,101.47
2022-12-18T19:07:35.494Z,96.53
2022-12-18T19:12:37.187Z,87.12
2022-12-18T19:17:42.477Z,82.50
2022-12-18T19:22:55.718Z,88.20
2022-12-18T19:27:57.812Z,96.60
2022-12-18T19:33:09.723Z,88.35
2022-12-18T19:38:22.508Z,92.68
2022-12-18T19:43:24.277Z,84.80
2022-12-18T19:48:27.367Z,89.87
2022-12-18T19:53:29.035Z,96.10
2022-12-18T19:58:30.682Z,100.75
2022-12-18T20:03:34.002Z,91.93
2022-12-18T20:08:35.914Z,96.93
2022-12-18T20:13:37.970Z,96.20
2022-12-18T20:18:41.271Z,93.70
2022-12-18T20:23:43.314Z,112.20
2022-12-18T20:28:45.690Z,95.78
2022-12-18T20:33:51.028Z,83.78
2022-12-18T20:38:57.014Z,92.15
2022-12-18T20:43:59.774Z,82.03
2022-12-18T20:49:02.827Z,98.20
2022-12-18T20:54:07.923Z,87.12
2022-12-18T20:59:12.061Z,91.60
2022-12-18T21:04:15.103Z,89.57
2022-12-18T21:09:19.272Z,101.75
2022-12-18T21:14:23.342Z,99.45
2022-12-18T21:19:27.661Z,90.93
2022-12-18T21:24:32.574Z,90.53
2022-12-18T21:29:34.692Z,86.57
2022-12-18T21:34:37.866Z,94.20
2022-12-18T21:39:39.721Z,104.07
2022-12-18T21:44:42.583Z,103.78
2022-12-18T21:49:45.702Z,89.05
2022-12-18T21:54:50.390Z,99.25
2022-12-18T21:59:52.107Z,89.55
2022-12-18T22:04:55.582Z,75.45
2022-12-18T22:09:57.817Z,91.85
2022-12-18T22:15:02.010Z,74.80
2022-12-18T22:20:06.043Z,85.38
2022-12-18T22:25:08.786Z,87.03
2022-12-18T22:30:11.925Z,89.32
2022-12-18T22:35:16.124Z,88.75
2022-12-18T22:40:23.867Z,74.37
2022-12-18T22:45:26.910Z,77.55
2022-12-18T22:50:30.388Z,87.32
2022-12-18T22:55:32.059Z,82.55
2022-12-18T23:00:33.666Z,77.32
2022-12-18T23:05:36.617Z,78.47
2022-12-18T23:10:38.387Z,88.93
2022-12-18T23:15:41.827Z,68.75
2022-12-18T23:20:44.919Z,75.57
2022-12-18T23:25:47.736Z,78.22
2022-12-18T23:30:50.193Z,78.95
2022-12-18T23:35:58.200Z,84.78
2022-12-18T23:41:00.140Z,65.65
2022-12-18T23:46:02.165Z,92.28
2022-12-18T23:51:07.390Z,71.00
2022-12-18T23:56:10.679Z,67.78
